Time;durP1;ratioP1;P1;durP2;ratioP2;P2;SDS_P1;SDS_P2;PMS_P1;PMS_P2;Temp;Humidity;BMP_temperature;BMP_pressure;BME280_temperature;BME280_humidity;BME280_pressure;Samples;Min_cycle;Max_cycle;Signal;HPM_P1;HPM_P2
2023/07/28 00:01:53;;;;;;;7.00;3.92;;;;;;;23.08;53.95;100534.94;5024019;28;20168;-33
2023/07/28 00:04:19;;;;;;;7.63;3.90;;;;;;;23.07;54.17;100535.97;5031569;28;20041;-33
2023/07/28 00:06:46;;;;;;;8.68;4.78;;;;;;;23.06;54.58;100529.72;5023781;28;20057;-34
2023/07/28 00:09:13;;;;;;;7.28;4.00;;;;;;;23.06;53.81;100528.88;5021245;28;20184;-34
2023/07/28 00:11:39;;;;;;;6.78;3.80;;;;;;;23.06;54.15;100528.88;5022353;28;20138;-34
2023/07/28 00:14:06;;;;;;;5.13;3.60;;;;;;;23.05;53.98;100522.66;5019984;28;20076;-34
2023/07/28 00:16:32;;;;;;;7.07;3.33;;;;;;;23.04;54.32;100520.97;5019683;28;20097;-35
2023/07/28 00:19:00;;;;;;;6.93;3.65;;;;;;;23.04;53.97;100520.97;5019680;28;20084;-34
2023/07/28 00:21:26;;;;;;;5.50;3.58;;;;;;;23.04;53.82;100517.44;5020911;28;20058;-34
2023/07/28 00:23:53;;;;;;;5.50;3.50;;;;;;;23.04;54.22;100523.69;5021949;28;20507;-34
2023/07/28 00:26:20;;;;;;;6.78;3.60;;;;;;;23.03;54.14;100527.41;5021145;28;20534;-34
2023/07/28 00:28:46;;;;;;;6.55;3.83;;;;;;;23.02;53.99;100525.72;5019151;28;20053;-34
2023/07/28 00:31:13;;;;;;;7.38;3.88;;;;;;;23.02;54.05;100522.19;5020463;28;20054;-34
2023/07/28 00:33:40;;;;;;;7.38;3.70;;;;;;;23.02;54.17;100519.50;5020584;28;20049;-34
2023/07/28 00:36:06;;;;;;;5.10;3.10;;;;;;;23.02;54.32;100527.59;5020106;28;20046;-35
2023/07/28 00:38:33;;;;;;;7.43;3.72;;;;;;;23.02;54.08;100522.19;5020607;28;20045;-35
2023/07/28 00:41:00;;;;;;;5.55;3.50;;;;;;;23.01;54.24;100524.06;5023759;28;20139;-35
2023/07/28 00:43:26;;;;;;;4.65;3.20;;;;;;;23.01;54.26;100524.06;5027896;28;20107;-34
2023/07/28 00:45:53;;;;;;;6.40;3.65;;;;;;;23.00;53.92;100527.81;5021082;28;20099;-34
2023/07/28 00:48:20;;;;;;;4.90;2.92;;;;;;;22.99;54.13;100518.00;5018286;28;20049;-35
2023/07/28 00:50:49;;;;;;;5.57;3.13;;;;;;;22.99;53.94;100530.69;5017982;28;20149;-35
2023/07/28 00:53:16;;;;;;;5.93;3.17;;;;;;;22.99;53.92;100526.13;5020314;28;20111;-36
2023/07/28 00:55:42;;;;;;;5.65;3.25;;;;;;;22.98;54.45;100519.03;5017570;28;20038;-35
2023/07/28 00:58:09;;;;;;;5.82;3.00;;;;;;;22.99;54.40;100530.69;5019571;28;20057;-34
2023/07/28 01:00:36;;;;;;;5.00;2.63;;;;;;;22.99;53.90;100519.88;5018567;28;20377;-34
2023/07/28 01:03:03;;;;;;;5.18;3.00;;;;;;;22.97;54.07;100517.38;5017376;28;20136;-34
2023/07/28 01:06:07;;;;;;;7.68;3.03;;;;;;;22.96;54.51;100523.81;5019572;28;20053;-34
2023/07/28 01:08:41;;;;;;;5.25;3.08;;;;;;;22.96;54.20;100526.53;5020777;28;20050;-34
2023/07/28 01:11:08;;;;;;;5.30;2.95;;;;;;;22.98;54.04;100537.97;5019567;28;20139;-33
2023/07/28 01:13:35;;;;;;;4.68;2.75;;;;;;;22.96;54.21;100534.63;5020351;28;20140;-34
2023/07/28 01:16:01;;;;;;;6.45;3.00;;;;;;;22.96;53.96;100534.63;5018953;28;20119;-34
2023/07/28 01:18:28;;;;;;;7.35;2.83;;;;;;;22.96;53.89;100529.22;5024674;28;20503;-34
2023/07/28 01:20:57;;;;;;;6.75;2.95;;;;;;;22.95;53.99;100532.94;5031216;28;20107;-33
2023/07/28 01:23:57;;;;;;;6.05;2.92;;;;;;;22.93;54.19;100535.00;5034731;28;20095;-34
2023/07/28 01:26:32;;;;;;;6.18;2.92;;;;;;;22.95;54.44;100529.41;5028942;28;20045;-33
2023/07/28 01:29:00;;;;;;;6.95;2.97;;;;;;;22.95;53.77;100532.09;5033076;28;20059;-33
2023/07/28 01:31:27;;;;;;;4.10;2.80;;;;;;;22.94;54.34;100519.63;5033551;28;20784;-33
2023/07/28 01:33:53;;;;;;;7.95;3.20;;;;;;;22.94;54.38;100527.75;5029497;28;20060;-34
2023/07/28 01:36:20;;;;;;;5.57;3.00;;;;;;;22.92;53.67;100535.22;5029919;28;20136;-33
2023/07/28 01:38:46;;;;;;;4.22;2.58;;;;;;;22.90;54.12;100528.13;5024104;28;20680;-34
2023/07/28 01:41:13;;;;;;;5.72;2.80;;;;;;;22.90;54.57;100536.22;5025975;28;20135;-34
2023/07/28 01:43:40;;;;;;;4.75;2.90;;;;;;;22.90;54.18;100529.94;5023497;28;20106;-33
2023/07/28 01:46:06;;;;;;;5.38;3.08;;;;;;;22.89;54.18;100528.28;5024884;28;20050;-34
2023/07/28 01:48:33;;;;;;;6.63;3.08;;;;;;;22.89;54.64;100539.94;5024029;28;20054;-34
2023/07/28 01:50:59;;;;;;;5.00;2.55;;;;;;;22.88;54.07;100530.16;5025272;28;20099;-34
2023/07/28 01:53:26;;;;;;;4.40;2.38;;;;;;;22.87;54.40;100535.75;5026454;28;20148;-33
2023/07/28 01:55:53;;;;;;;4.75;2.58;;;;;;;22.88;54.27;100534.72;5023589;28;20049;-34
2023/07/28 01:58:20;;;;;;;5.25;2.78;;;;;;;22.87;54.05;100536.59;5022291;28;20069;-33
2023/07/28 02:00:47;;;;;;;4.90;2.80;;;;;;;22.87;54.09;100533.03;5024612;28;20574;-33
2023/07/28 02:03:14;;;;;;;5.97;2.72;;;;;;;22.87;54.29;100527.63;5025701;28;20056;-33
2023/07/28 02:05:40;;;;;;;4.13;2.80;;;;;;;22.85;54.34;100533.25;5024746;28;20081;-33
2023/07/28 02:08:07;;;;;;;5.65;2.33;;;;;;;22.86;53.92;100525.97;5027993;28;22164;-34
2023/07/28 02:10:33;;;;;;;5.80;2.80;;;;;;;22.86;54.00;100526.81;5030632;28;20120;-34
2023/07/28 02:13:00;;;;;;;6.25;2.70;;;;;;;22.86;53.74;100526.81;5027605;28;20413;-34
2023/07/28 02:15:26;;;;;;;4.78;2.65;;;;;;;22.85;54.00;100527.84;5026027;28;20096;-34
2023/07/28 02:17:53;;;;;;;5.13;2.72;;;;;;;22.86;54.55;100525.97;5030562;28;20060;-33
2023/07/28 02:20:20;;;;;;;3.95;2.47;;;;;;;22.86;54.10;100529.50;5030112;28;20115;-33
2023/07/28 02:22:46;;;;;;;5.45;2.67;;;;;;;22.86;53.59;100526.81;5035434;28;20056;-34
2023/07/28 02:25:13;;;;;;;4.43;2.60;;;;;;;22.85;54.03;100524.31;5030056;28;20134;-33
2023/07/28 02:27:40;;;;;;;5.18;2.70;;;;;;;22.86;53.91;100521.41;5026332;28;20069;-34
2023/07/28 02:30:07;;;;;;;3.88;2.33;;;;;;;22.86;53.89;100531.38;5037456;28;20053;-34
2023/07/28 02:32:34;;;;;;;6.43;2.88;;;;;;;22.86;53.79;100536.78;5027887;28;20054;-34
2023/07/28 02:35:01;;;;;;;4.60;2.70;;;;;;;22.85;54.15;100527.84;5029502;28;20100;-34
2023/07/28 02:37:27;;;;;;;6.72;2.55;;;;;;;22.84;54.17;100526.16;5026611;28;20049;-34
2023/07/28 02:39:54;;;;;;;3.88;2.47;;;;;;;22.84;54.27;100526.16;5029061;28;20107;-34
2023/07/28 02:42:20;;;;;;;4.75;2.58;;;;;;;22.85;53.74;100527.84;5031557;28;20080;-34
2023/07/28 02:44:47;;;;;;;4.20;2.60;;;;;;;22.84;53.99;100526.16;5035138;28;20107;-33
2023/07/28 02:47:14;;;;;;;3.90;2.20;;;;;;;22.84;54.10;100530.75;5031170;28;20099;-34
2023/07/28 02:49:41;;;;;;;3.83;2.53;;;;;;;22.84;53.95;100530.75;5027765;28;20453;-34
2023/07/28 02:52:08;;;;;;;5.78;3.15;;;;;;;22.84;54.03;100533.44;5027519;28;20132;-34
2023/07/28 02:54:34;;;;;;;5.00;2.08;;;;;;;22.84;53.84;100536.16;5025501;28;20061;-33
2023/07/28 02:57:01;;;;;;;4.22;2.40;;;;;;;22.84;53.98;100542.38;5027078;28;20064;-34
2023/07/28 02:59:28;;;;;;;4.70;2.78;;;;;;;22.84;54.11;100541.56;5024652;28;20134;-36
2023/07/28 03:01:56;;;;;;;3.78;2.42;;;;;;;22.82;54.11;100544.44;5023872;28;20522;-33
2023/07/28 03:04:22;;;;;;;4.97;2.75;;;;;;;22.84;54.12;100536.16;5023921;28;20345;-33
2023/07/28 03:06:49;;;;;;;6.10;2.70;;;;;;;22.84;53.83;100536.16;5025224;28;20142;-33
2023/07/28 03:09:16;;;;;;;4.43;2.78;;;;;;;22.82;53.87;100549.84;5027609;28;20065;-35
2023/07/28 03:11:43;;;;;;;3.40;2.45;;;;;;;22.83;54.14;100542.56;5028437;28;20133;-33
2023/07/28 03:14:10;;;;;;;4.95;2.72;;;;;;;22.82;53.66;100544.44;5023894;28;21754;-34
2023/07/28 03:16:36;;;;;;;4.47;2.53;;;;;;;22.82;53.53;100544.44;5026267;28;20108;-34
2023/07/28 03:19:04;;;;;;;3.38;2.38;;;;;;;22.83;54.11;100542.56;5034772;28;20962;-33
2023/07/28 03:21:31;;;;;;;5.82;2.65;;;;;;;22.82;53.88;100544.44;5034140;28;20056;-34
2023/07/28 03:23:57;;;;;;;5.15;2.58;;;;;;;22.83;53.82;100551.50;5037368;28;20056;-33
2023/07/28 03:26:25;;;;;;;4.10;2.40;;;;;;;22.81;53.52;100550.88;5032633;28;20510;-34
2023/07/28 03:28:51;;;;;;;3.88;2.40;;;;;;;22.81;54.07;100556.28;5030644;28;20069;-33
2023/07/28 03:31:18;;;;;;;4.43;2.53;;;;;;;22.82;53.95;100557.09;5031421;28;20080;-34
2023/07/28 03:33:45;;;;;;;5.22;2.80;;;;;;;22.82;53.61;100557.09;5029937;28;20057;-34
2023/07/28 03:36:12;;;;;;;4.47;2.20;;;;;;;22.80;54.42;100551.91;5027655;28;20049;-33
2023/07/28 03:38:39;;;;;;;3.95;2.65;;;;;;;22.81;54.25;100552.75;5023780;28;20134;-33
2023/07/28 03:41:06;;;;;;;7.45;2.88;;;;;;;22.80;53.78;100567.28;5027644;28;20053;-34
2023/07/28 03:43:33;;;;;;;3.33;2.10;;;;;;;22.80;54.03;100570.00;5026546;28;20053;-34
2023/07/28 03:46:00;;;;;;;5.75;2.55;;;;;;;22.80;54.01;100568.13;5024950;28;20128;-35
2023/07/28 03:48:26;;;;;;;4.47;2.60;;;;;;;22.80;54.37;100572.69;5023975;28;20053;-35
2023/07/28 03:50:53;;;;;;;4.35;2.47;;;;;;;22.80;54.05;100565.41;5025592;28;20053;-34
2023/07/28 03:53:20;;;;;;;4.80;2.30;;;;;;;22.80;54.22;100570.81;5024234;28;20041;-34
2023/07/28 03:55:46;;;;;;;3.95;2.28;;;;;;;22.80;54.04;100575.41;5025174;28;20511;-34
2023/07/28 03:58:13;;;;;;;4.13;2.45;;;;;;;22.80;53.87;100570.81;5031555;28;20057;-34
2023/07/28 04:00:39;;;;;;;4.20;2.38;;;;;;;22.79;54.29;100574.53;5028945;28;20503;-34
2023/07/28 04:03:06;;;;;;;5.05;2.65;;;;;;;22.79;53.78;100569.13;5017977;28;20057;-33
2023/07/28 04:05:33;;;;;;;4.50;2.25;;;;;;;22.80;54.17;100580.81;5024072;28;20045;-33
2023/07/28 04:07:59;;;;;;;3.60;2.25;;;;;;;22.80;54.39;100578.09;5024751;28;20072;-33
2023/07/28 04:10:26;;;;;;;3.55;2.20;;;;;;;22.79;53.76;100579.94;5026241;28;20053;-34
2023/07/28 04:12:52;;;;;;;4.30;2.55;;;;;;;22.79;53.83;100581.81;5019478;28;20045;-35
2023/07/28 04:15:19;;;;;;;4.63;2.40;;;;;;;22.79;53.71;100579.94;5021329;28;20048;-33
2023/07/28 04:17:46;;;;;;;5.50;2.58;;;;;;;22.80;54.25;100584.34;5021940;28;20073;-33
2023/07/28 04:20:12;;;;;;;3.08;2.10;;;;;;;22.79;53.65;100585.34;5028356;28;20425;-34
2023/07/28 04:22:39;;;;;;;2.97;2.15;;;;;;;22.79;53.98;100585.34;5025360;28;20429;-34
2023/07/28 04:25:06;;;;;;;4.10;2.05;;;;;;;22.79;53.72;100588.03;5031067;28;20055;-35
2023/07/28 04:27:33;;;;;;;3.53;2.22;;;;;;;22.79;53.62;100579.94;5028701;28;20433;-33
2023/07/28 04:29:59;;;;;;;3.25;2.25;;;;;;;22.80;53.67;100594.31;5029610;28;20049;-33
2023/07/28 04:32:26;;;;;;;3.75;2.50;;;;;;;22.79;53.91;100590.75;5027803;28;20053;-34
2023/07/28 04:34:53;;;;;;;4.13;2.40;;;;;;;22.79;53.86;100585.34;5020217;28;20046;-34
2023/07/28 04:37:20;;;;;;;3.30;2.25;;;;;;;22.79;54.08;100590.75;5024923;28;20049;-35
2023/07/28 04:39:46;;;;;;;3.30;2.00;;;;;;;22.79;54.22;100593.44;5026686;28;20050;-33
2023/07/28 04:42:13;;;;;;;5.15;2.50;;;;;;;22.80;53.60;100591.59;5029763;28;20065;-34
2023/07/28 04:44:40;;;;;;;4.15;2.42;;;;;;;22.79;54.00;100595.31;5032921;28;20049;-33
2023/07/28 04:47:07;;;;;;;3.70;2.30;;;;;;;22.78;53.80;100597.19;5023136;28;20045;-33
2023/07/28 04:49:33;;;;;;;6.20;2.50;;;;;;;22.80;53.61;100602.41;5024849;28;20045;-35
2023/07/28 04:52:00;;;;;;;4.18;2.35;;;;;;;22.79;53.67;100598.03;5025315;28;20072;-34
2023/07/28 04:54:26;;;;;;;5.22;2.35;;;;;;;22.79;53.57;100598.03;5025209;28;20057;-34
2023/07/28 04:56:53;;;;;;;5.20;2.50;;;;;;;22.79;53.28;100600.72;5022972;28;20242;-35
2023/07/28 04:59:19;;;;;;;4.38;2.47;;;;;;;22.79;53.86;100603.41;5024368;28;20057;-33
2023/07/28 05:01:46;;;;;;;3.67;2.53;;;;;;;22.78;53.56;100599.06;5023711;28;20512;-34
2023/07/28 05:04:13;;;;;;;5.18;2.75;;;;;;;22.78;53.96;100597.19;5024632;28;20433;-33
2023/07/28 05:06:39;;;;;;;4.60;2.75;;;;;;;22.78;53.36;100597.19;5022411;28;20140;-33
2023/07/28 05:09:06;;;;;;;8.80;3.30;;;;;;;22.78;53.72;100601.75;5022363;28;20131;-34
2023/07/28 05:11:33;;;;;;;4.30;2.55;;;;;;;22.78;53.93;100604.47;5025560;28;20131;-34
2023/07/28 05:14:00;;;;;;;5.63;2.75;;;;;;;22.79;53.69;100603.41;5023350;28;20111;-34
2023/07/28 05:16:26;;;;;;;10.90;2.83;;;;;;;22.78;53.75;100604.47;5024816;28;20150;-33
2023/07/28 05:18:53;;;;;;;5.47;2.85;;;;;;;22.78;53.84;100607.16;5030249;28;20049;-33
2023/07/28 05:21:20;;;;;;;5.88;3.40;;;;;;;22.77;53.89;100608.19;5030810;28;20046;-34
2023/07/28 05:23:46;;;;;;;4.47;2.67;;;;;;;22.78;53.97;100604.47;5032526;28;20056;-34
2023/07/28 05:26:13;;;;;;;3.97;2.53;;;;;;;22.78;53.49;100612.56;5034094;28;20045;-33
2023/07/28 05:28:39;;;;;;;5.70;3.15;;;;;;;22.78;54.22;100607.16;5032074;28;20049;-33
2023/07/28 05:31:06;;;;;;;5.00;2.67;;;;;;;22.78;53.79;100604.47;5034573;28;20049;-33
2023/07/28 05:33:33;;;;;;;5.72;2.78;;;;;;;22.78;53.88;100607.16;5035045;28;20084;-35
2023/07/28 05:36:03;;;;;;;6.65;2.72;;;;;;;22.78;53.90;100608.00;5032563;28;20140;-34
2023/07/28 05:38:32;;;;;;;4.80;2.70;;;;;;;22.78;53.70;100609.88;5026313;28;20049;-34
2023/07/28 05:41:03;;;;;;;4.82;2.55;;;;;;;22.79;54.11;100608.81;5030193;28;20056;-34
2023/07/28 05:43:33;;;;;;;5.38;3.03;;;;;;;22.77;53.92;100611.72;5026852;28;20064;-34
2023/07/28 05:46:00;;;;;;;5.63;2.75;;;;;;;22.79;53.83;100606.13;5027776;28;20372;-34
2023/07/28 05:48:27;;;;;;;6.72;3.40;;;;;;;22.79;53.97;100608.81;5025360;28;20060;-35
2023/07/28 05:50:54;;;;;;;6.63;2.70;;;;;;;22.79;53.88;100617.75;5027413;28;20061;-34
2023/07/28 05:53:21;;;;;;;6.22;3.13;;;;;;;22.79;53.87;100615.06;5027970;28;20107;-34
2023/07/28 05:55:48;;;;;;;5.07;2.67;;;;;;;22.79;54.01;100620.47;5026232;28;20132;-34
2023/07/28 05:58:15;;;;;;;8.25;3.15;;;;;;;22.80;53.80;100621.34;5025186;28;20053;-34
2023/07/28 06:00:42;;;;;;;4.53;2.90;;;;;;;22.80;54.03;100630.28;5029687;28;20353;-34
2023/07/28 06:03:14;;;;;;;9.15;2.58;;;;;;;22.82;54.21;100630.06;5025601;28;20457;-34
2023/07/28 06:05:41;;;;;;;6.97;3.05;;;;;;;22.82;53.87;100630.91;5027030;28;20506;-34
2023/07/28 06:08:08;;;;;;;8.07;3.03;;;;;;;22.81;53.95;100631.94;5026867;28;20113;-33
2023/07/28 06:10:36;;;;;;;6.68;3.22;;;;;;;22.82;53.74;100635.47;5025171;28;20060;-34
2023/07/28 06:13:03;;;;;;;6.00;2.72;;;;;;;22.82;53.75;100643.59;5033644;28;20072;-36
2023/07/28 06:15:29;;;;;;;6.85;3.20;;;;;;;22.83;53.91;100647.94;5037039;28;20195;-34
2023/07/28 06:17:56;;;;;;;6.60;2.90;;;;;;;22.83;54.01;100642.53;5037373;28;20106;-35
2023/07/28 06:20:23;;;;;;;4.38;2.92;;;;;;;22.83;53.73;100637.13;5038316;28;20045;-34
2023/07/28 06:22:50;;;;;;;3.25;2.45;;;;;;;22.83;53.75;100643.38;5039280;28;20233;-34
2023/07/28 06:25:16;;;;;;;5.82;2.75;;;;;;;22.84;54.01;100641.53;5032231;28;20053;-34
2023/07/28 06:27:43;;;;;;;4.15;2.50;;;;;;;22.83;53.68;100642.53;5040603;28;20048;-34
2023/07/28 06:30:10;;;;;;;4.80;2.95;;;;;;;22.83;53.63;100645.25;5034839;28;20296;-34
2023/07/28 06:32:36;;;;;;;5.95;3.33;;;;;;;22.83;53.81;100650.66;5032847;28;20053;-34
2023/07/28 06:35:05;;;;;;;5.35;3.17;;;;;;;22.82;53.56;100657.94;5033445;28;20053;-34
2023/07/28 06:37:31;;;;;;;6.18;2.60;;;;;;;22.83;53.92;100661.47;5039648;28;20048;-34
2023/07/28 06:39:58;;;;;;;4.75;2.70;;;;;;;22.84;54.11;100671.28;5039264;28;20429;-34
2023/07/28 06:42:26;;;;;;;5.47;3.00;;;;;;;22.84;53.94;100669.41;5033919;28;20053;-35
2023/07/28 06:44:52;;;;;;;6.00;2.95;;;;;;;22.83;53.96;100664.16;5029828;28;20132;-35
2023/07/28 06:47:19;;;;;;;9.80;3.42;;;;;;;22.83;53.85;100675.81;5032402;28;20053;-35
2023/07/28 06:49:45;;;;;;;5.35;3.40;;;;;;;22.84;53.77;100672.09;5032585;28;20050;-34
2023/07/28 06:52:12;;;;;;;6.43;2.90;;;;;;;22.86;53.90;100680.00;5030766;28;20049;-34
2023/07/28 06:54:39;;;;;;;4.95;2.60;;;;;;;22.84;54.24;100671.28;5034487;28;20054;-34
2023/07/28 06:57:06;;;;;;;6.57;3.13;;;;;;;22.84;53.98;100677.50;5028323;28;20173;-34
2023/07/28 06:59:33;;;;;;;6.25;3.15;;;;;;;22.84;53.85;100682.91;5032370;28;20121;-34
2023/07/28 07:01:59;;;;;;;4.47;3.17;;;;;;;22.86;53.98;100685.41;5032318;28;20423;-34
2023/07/28 07:04:26;;;;;;;6.47;3.08;;;;;;;22.86;53.79;100685.41;5034626;28;20049;-35
2023/07/28 07:06:53;;;;;;;4.65;3.08;;;;;;;22.85;53.61;100687.28;5031133;28;20045;-34
2023/07/28 07:09:20;;;;;;;6.90;3.03;;;;;;;22.86;53.97;100690.81;5032267;28;20314;-34
2023/07/28 07:11:46;;;;;;;4.97;2.80;;;;;;;22.88;53.83;100694.19;5028791;28;20483;-34
2023/07/28 07:14:14;;;;;;;6.35;3.08;;;;;;;22.88;54.11;100700.44;5031367;28;20049;-34
2023/07/28 07:16:41;;;;;;;4.43;3.00;;;;;;;22.88;53.92;100700.44;5032030;28;20437;-35
2023/07/28 07:19:08;;;;;;;4.97;2.92;;;;;;;22.89;54.14;100707.50;5030781;28;20052;-35
2023/07/28 07:21:35;;;;;;;6.72;3.22;;;;;;;22.89;54.06;100704.78;5029421;28;20160;-34
2023/07/28 07:24:03;;;;;;;5.60;2.75;;;;;;;22.92;54.31;100713.59;5036424;28;20128;-35
2023/07/28 07:26:31;;;;;;;5.75;2.95;;;;;;;22.92;54.01;100717.13;5033994;28;20045;-34
2023/07/28 07:28:58;;;;;;;6.05;2.95;;;;;;;22.93;53.63;100723.38;5038468;28;20130;-34
2023/07/28 07:31:25;;;;;;;7.05;3.83;;;;;;;22.94;54.11;100715.06;5036079;28;20107;-33
2023/07/28 07:33:51;;;;;;;6.18;3.30;;;;;;;22.96;53.97;100717.59;5034052;28;20049;-33
2023/07/28 07:36:19;;;;;;;6.07;3.05;;;;;;;22.96;53.91;100728.41;5037578;28;20045;-34
2023/07/28 07:38:46;;;;;;;7.30;3.63;;;;;;;22.96;53.78;100726.53;5033850;28;20049;-34
2023/07/28 07:41:19;;;;;;;4.43;2.60;;;;;;;22.98;54.17;100727.19;5036393;28;20076;-33
2023/07/28 07:43:49;;;;;;;5.70;3.58;;;;;;;22.98;54.19;100726.34;5031375;28;20049;-34
2023/07/28 07:46:16;;;;;;;5.80;3.00;;;;;;;22.99;54.08;100726.13;5037441;28;20132;-34
2023/07/28 07:48:43;;;;;;;6.55;2.97;;;;;;;23.00;54.01;100727.84;5032651;28;20493;-34
2023/07/28 07:51:10;;;;;;;5.85;2.78;;;;;;;23.00;53.78;100727.84;5034075;28;20081;-34
2023/07/28 07:53:37;;;;;;;5.55;3.20;;;;;;;23.01;53.81;100732.22;5031404;28;20111;-34
2023/07/28 07:56:04;;;;;;;5.00;2.92;;;;;;;23.01;53.92;100732.22;5032581;28;20053;-34
2023/07/28 07:58:32;;;;;;;7.38;3.50;;;;;;;23.01;54.00;100732.22;5032861;28;20112;-34
2023/07/28 08:00:59;;;;;;;4.93;2.95;;;;;;;23.02;53.69;100736.59;5039724;28;20384;-34
2023/07/28 08:03:27;;;;;;;4.78;2.55;;;;;;;23.03;53.71;100748.22;5030846;28;20185;-35
2023/07/28 08:05:54;;;;;;;4.25;2.95;;;;;;;23.04;53.50;100750.75;5034795;28;20186;-34
2023/07/28 08:08:21;;;;;;;5.03;3.10;;;;;;;23.05;53.99;100746.19;5036757;28;20037;-34
2023/07/28 08:10:49;;;;;;;5.00;2.90;;;;;;;23.06;53.70;100747.84;5037492;28;20045;-35
2023/07/28 08:13:16;;;;;;;4.93;3.20;;;;;;;23.06;53.78;100751.41;5032019;28;20049;-34
2023/07/28 08:15:43;;;;;;;4.45;3.17;;;;;;;23.07;53.92;100752.22;5032668;28;20389;-33
2023/07/28 08:18:11;;;;;;;4.47;3.22;;;;;;;23.06;53.70;100743.28;5032118;28;20044;-34
2023/07/28 08:20:38;;;;;;;7.75;2.85;;;;;;;23.08;54.04;100751.22;5031915;28;20056;-34
2023/07/28 08:23:05;;;;;;;4.57;2.90;;;;;;;23.08;53.85;100749.34;5029666;28;20127;-34
2023/07/28 08:25:32;;;;;;;5.47;3.05;;;;;;;23.10;54.37;100749.16;5033035;28;20144;-34
2023/07/28 08:27:58;;;;;;;3.90;2.97;;;;;;;23.12;53.76;100745.25;5033685;28;20090;-35
2023/07/28 08:30:25;;;;;;;6.25;2.97;;;;;;;23.14;54.41;100743.19;5034204;28;20063;-35
2023/07/28 08:32:51;;;;;;;4.55;3.03;;;;;;;23.16;54.20;100751.13;5029285;28;20111;-34
2023/07/28 08:35:18;;;;;;;4.10;2.80;;;;;;;23.17;54.13;100751.94;5030920;28;20064;-36
2023/07/28 08:37:45;;;;;;;4.57;2.97;;;;;;;23.19;53.76;100755.28;5030031;28;20442;-34
2023/07/28 08:40:12;;;;;;;4.22;2.78;;;;;;;23.20;53.96;100755.13;5031954;28;20433;-34
2023/07/28 08:42:40;;;;;;;3.90;2.70;;;;;;;23.22;53.88;100763.88;5028986;28;20110;-35
2023/07/28 08:45:10;;;;;;;4.78;3.15;;;;;;;23.22;53.90;100758.44;5025702;28;20049;-34
2023/07/28 08:47:37;;;;;;;5.78;2.65;;;;;;;23.25;53.85;100759.94;5027936;28;20052;-34
2023/07/28 08:50:05;;;;;;;4.43;3.00;;;;;;;23.26;53.52;100761.63;5030190;28;20050;-34
2023/07/28 08:52:32;;;;;;;5.32;3.05;;;;;;;23.27;53.61;100760.59;5029105;28;20052;-36
2023/07/28 08:54:59;;;;;;;3.72;2.80;;;;;;;23.27;53.55;100763.28;5030796;28;20064;-34
2023/07/28 08:57:27;;;;;;;6.43;3.63;;;;;;;23.28;53.43;100762.28;5026146;28;20049;-35
2023/07/28 08:59:54;;;;;;;5.03;2.85;;;;;;;23.29;53.84;100764.78;5028178;28;20045;-34
2023/07/28 09:02:21;;;;;;;3.97;3.20;;;;;;;23.29;53.79;100766.66;5028200;28;20045;-35
2023/07/28 09:04:49;;;;;;;5.70;3.17;;;;;;;23.31;53.95;100767.28;5028516;28;20053;-34
2023/07/28 09:07:15;;;;;;;4.00;2.88;;;;;;;23.31;53.19;100775.41;5033221;28;20611;-35
2023/07/28 09:09:43;;;;;;;8.90;3.63;;;;;;;23.30;53.42;100768.31;5032932;28;20053;-34
2023/07/28 09:12:09;;;;;;;7.07;3.20;;;;;;;23.31;53.35;100772.69;5031888;28;20391;-34
2023/07/28 09:14:37;;;;;;;5.30;3.53;;;;;;;23.32;53.33;100777.94;5029813;28;20050;-34
2023/07/28 09:17:12;;;;;;;4.95;3.42;;;;;;;23.31;53.64;100770.81;5029742;28;20634;-36
2023/07/28 09:19:56;;;;;;;9.07;3.85;;;;;;;23.31;53.98;100773.53;5031740;28;20045;-34
2023/07/28 09:22:23;;;;;;;5.97;3.90;;;;;;;23.33;53.73;100770.66;5030639;28;20327;-35
2023/07/28 09:24:51;;;;;;;8.00;4.00;;;;;;;23.35;54.88;100774.00;5032471;28;20111;-36
2023/07/28 09:27:23;;;;;;;7.13;3.92;;;;;;;23.35;54.65;100769.41;5034399;28;20041;-34
2023/07/28 09:29:51;;;;;;;11.43;4.95;;;;;;;23.38;54.90;100769.03;5033298;28;20053;-34
2023/07/28 09:32:31;;;;;;;16.08;5.88;;;;;;;23.38;54.45;100768.22;5032493;28;20096;-34
2023/07/28 09:35:10;;;;;;;11.15;6.78;;;;;;;23.40;54.59;100772.41;5030692;28;20054;-34
2023/07/28 09:37:39;;;;;;;22.77;9.98;;;;;;;23.42;54.69;100766.78;5030857;28;20052;-34
2023/07/28 09:40:14;;;;;;;20.05;9.88;;;;;;;23.44;55.00;100767.47;5028817;28;20103;-34
2023/07/28 09:42:49;;;;;;;29.10;10.27;;;;;;;23.48;55.25;100766.03;5030634;28;20046;-34
2023/07/28 09:45:20;;;;;;;28.10;10.02;;;;;;;23.49;55.44;100778.53;5030819;28;20053;-35
2023/07/28 09:48:07;;;;;;;18.73;8.85;;;;;;;23.50;55.85;100780.19;5026073;28;20052;-34
2023/07/28 09:50:37;;;;;;;17.63;8.18;;;;;;;23.50;56.09;100776.66;5031120;28;20408;-34
2023/07/28 09:53:07;;;;;;;21.10;8.27;;;;;;;23.51;56.35;100781.88;5034183;28;20058;-34
2023/07/28 09:55:35;;;;;;;23.38;7.97;;;;;;;23.52;56.13;100785.44;5029974;28;20060;-34
2023/07/28 09:58:05;;;;;;;16.25;7.25;;;;;;;23.53;55.60;100784.41;5030091;28;20423;-35
2023/07/28 10:00:33;;;;;;;20.27;7.45;;;;;;;23.52;55.85;100786.28;5031699;28;20061;-35
2023/07/28 10:03:02;;;;;;;15.00;6.57;;;;;;;23.53;55.09;100785.25;5029138;28;20471;-34
2023/07/28 10:05:29;;;;;;;13.75;6.53;;;;;;;23.54;54.95;100796.91;5030243;28;20107;-34
2023/07/28 10:07:57;;;;;;;14.10;6.95;;;;;;;23.54;55.34;100788.78;5031803;28;20099;-35
2023/07/28 10:10:24;;;;;;;11.70;5.97;;;;;;;23.54;54.66;100788.78;5029042;28;20076;-34
2023/07/28 10:12:52;;;;;;;13.73;6.10;;;;;;;23.53;54.81;100787.94;5027244;28;20054;-34
2023/07/28 10:15:20;;;;;;;11.70;6.03;;;;;;;23.55;54.54;100787.75;5028571;28;20053;-34
2023/07/28 10:17:52;;;;;;;12.20;6.65;;;;;;;23.54;54.47;100786.91;5032762;28;20041;-34
2023/07/28 10:20:41;;;;;;;11.15;5.82;;;;;;;23.54;54.80;100781.50;5033009;28;20061;-35
2023/07/28 10:23:13;;;;;;;12.88;5.95;;;;;;;23.54;54.52;100786.91;5034666;28;20652;-35
2023/07/28 10:25:41;;;;;;;14.13;6.05;;;;;;;23.55;54.49;100793.16;5034920;28;20123;-35
2023/07/28 10:28:27;;;;;;;11.13;5.55;;;;;;;23.54;54.43;100786.06;5035132;28;20693;-35
2023/07/28 10:30:55;;;;;;;11.48;5.38;;;;;;;23.56;54.36;100786.72;5031136;28;20080;-35
2023/07/28 10:33:41;;;;;;;13.90;6.13;;;;;;;23.55;54.39;100795.84;5031242;28;20099;-34
2023/07/28 10:36:14;;;;;;;13.98;5.85;;;;;;;23.56;54.12;100792.97;5044367;28;20038;-34
2023/07/28 10:38:43;;;;;;;13.35;5.85;;;;;;;23.56;53.90;100786.72;5038033;28;20048;-35
2023/07/28 10:41:15;;;;;;;14.43;6.03;;;;;;;23.55;53.78;100788.56;5037879;28;20140;-35
2023/07/28 10:43:43;;;;;;;11.23;4.75;;;;;;;23.57;54.13;100802.75;5036067;28;20045;-34
2023/07/28 10:46:13;;;;;;;12.95;5.57;;;;;;;23.56;53.98;100787.56;5033570;28;20072;-34
2023/07/28 10:48:45;;;;;;;10.60;5.45;;;;;;;23.56;54.10;100798.38;5030105;28;20041;-33
2023/07/28 10:51:24;;;;;;;13.00;6.13;;;;;;;23.57;54.05;100796.53;5030405;28;20069;-34
2023/07/28 10:53:55;;;;;;;24.70;5.45;;;;;;;23.58;54.04;100795.47;5035463;28;20192;-33
2023/07/28 10:56:22;;;;;;;11.43;5.68;;;;;;;23.57;53.75;100793.81;5034866;28;20306;-33
2023/07/28 10:58:59;;;;;;;11.73;5.18;;;;;;;23.57;54.16;100808.19;5030909;28;20134;-35
2023/07/28 11:01:40;;;;;;;9.05;4.75;;;;;;;23.57;53.85;100802.75;5032770;28;20140;-34
2023/07/28 11:04:15;;;;;;;12.15;5.47;;;;;;;23.58;53.67;100804.44;5032028;28;20049;-34
2023/07/28 11:06:48;;;;;;;10.85;5.22;;;;;;;23.58;53.50;100807.13;5031797;28;20049;-33
2023/07/28 11:09:21;;;;;;;6.53;4.03;;;;;;;23.59;54.04;100816.09;5034811;28;20129;-33
2023/07/28 11:11:49;;;;;;;9.10;4.35;;;;;;;23.57;53.74;100810.88;5032254;28;20057;-36
2023/07/28 11:14:17;;;;;;;8.80;4.82;;;;;;;23.59;53.41;100811.50;5033819;28;20041;-34
2023/07/28 11:16:50;;;;;;;8.23;4.53;;;;;;;23.60;53.59;100817.78;5033841;28;20080;-34
2023/07/28 11:19:22;;;;;;;14.63;4.43;;;;;;;23.60;53.41;100812.38;5032481;28;20049;-34
2023/07/28 11:21:51;;;;;;;9.10;4.13;;;;;;;23.60;53.93;100813.22;5031395;28;21378;-34
2023/07/28 11:24:20;;;;;;;10.52;4.68;;;;;;;23.61;53.69;100824.88;5031748;28;20433;-33
2023/07/28 11:26:47;;;;;;;7.53;4.03;;;;;;;23.62;53.52;100819.25;5034466;28;20053;-34
2023/07/28 11:29:13;;;;;;;5.60;3.92;;;;;;;23.62;54.05;100819.25;5031913;28;20069;-34